Edler, Colorado
Current Conditions -  °F | °C
As of 2:53 PM on Tuesday 21 Oct 2014 (Local Time) from KLAA Reporting Station
Clear Clear  
Wind Chill: 82°   Ceiling: Unl
Heat Index: 82°   Visibility: 10mi
Dew Point: 41°   Wind: 20mph
Humidity: 23%   Direction: 200°SSW
Pressure: 29.92"   Gusts: 26mph
Location:  37.4412°N, 102.623°W
Report Text: KLAA 212053Z AUTO 20017G23KT 10SM CLR 28/05 A2992 RMK AO2 PK WND 22026/2005 SLP095 T02780050 56022
Loading
Personal Weather Stations






























Interactive Weather Map
Tropical Storm Tracking
New forecast layout! Learn more

10-Day Weather Forecast

Advertisements
Track Severe Weather on mobile